createdAt,value
2022-11-13T00:00:16.061Z,96460.25
2022-11-13T00:02:43.689Z,96460.34
2022-11-13T00:05:11.329Z,96457.28
2022-11-13T00:07:38.983Z,96453.31
2022-11-13T00:10:07.581Z,96451.81
2022-11-13T00:12:36.530Z,96447.63
2022-11-13T00:15:04.439Z,96444.28
2022-11-13T00:17:32.063Z,96447.03
2022-11-13T00:19:59.670Z,96441.25
2022-11-13T00:22:27.273Z,96443.97
2022-11-13T00:24:54.985Z,96428.56
2022-11-13T00:27:23.352Z,96431.91
2022-11-13T00:29:52.308Z,96433.66
2022-11-13T00:32:20.425Z,96420.91
2022-11-13T00:34:48.667Z,96427.91
2022-11-13T00:37:16.423Z,96417.63
2022-11-13T00:39:44.025Z,96420.59
2022-11-13T00:42:11.577Z,96418.03
2022-11-13T00:44:39.196Z,96420.16
2022-11-13T00:47:08.173Z,96418.00
2022-11-13T00:49:35.739Z,96419.66
2022-11-13T00:52:03.904Z,96421.50
2022-11-13T00:54:31.642Z,96406.00
2022-11-13T00:56:59.397Z,96401.06
2022-11-13T00:59:26.968Z,96405.38
2022-11-13T01:01:54.541Z,96402.25
2022-11-13T01:04:23.558Z,96398.44
2022-11-13T01:06:51.211Z,96401.00
2022-11-13T01:09:18.922Z,96391.59
2022-11-13T01:11:46.460Z,96389.53
2022-11-13T01:14:14.109Z,96382.41
2022-11-13T01:16:41.702Z,96382.41
2022-11-13T01:19:09.271Z,96380.94
2022-11-13T01:21:38.185Z,96380.50
2022-11-13T01:24:06.225Z,96376.44
2022-11-13T01:26:33.869Z,96367.56
2022-11-13T01:29:01.693Z,96364.38
2022-11-13T01:31:30.957Z,96365.53
2022-11-13T01:33:59.150Z,96362.66
2022-11-13T01:36:29.308Z,96350.38
2022-11-13T01:38:58.589Z,96354.31
2022-11-13T01:41:27.971Z,96352.69
2022-11-13T01:43:56.612Z,96354.59
2022-11-13T01:46:29.725Z,96351.28
2022-11-13T01:49:03.472Z,96346.34
2022-11-13T01:51:34.872Z,96342.00
2022-11-13T01:54:07.107Z,96341.47
2022-11-13T01:56:34.832Z,96335.25
2022-11-13T01:59:07.961Z,96328.13
2022-11-13T02:01:36.278Z,96325.16
2022-11-13T02:04:04.120Z,96332.59
2022-11-13T02:06:43.276Z,96325.16
2022-11-13T02:09:13.826Z,96336.41
2022-11-13T02:11:42.327Z,96331.06
2022-11-13T02:14:10.852Z,96324.22
2022-11-13T02:16:40.515Z,96328.63
2022-11-13T02:19:14.174Z,96331.69
2022-11-13T02:21:48.751Z,96323.88
2022-11-13T02:24:23.953Z,96300.59
2022-11-13T02:26:53.125Z,96304.16
2022-11-13T02:29:20.703Z,96313.84
2022-11-13T02:31:48.317Z,96304.41
2022-11-13T02:34:15.960Z,96312.00
2022-11-13T02:36:43.867Z,96298.66
2022-11-13T02:39:13.526Z,96292.38
2022-11-13T02:41:42.513Z,96296.78
2022-11-13T02:44:10.106Z,96285.16
2022-11-13T02:46:38.644Z,96284.72
2022-11-13T02:49:06.423Z,96283.03
2022-11-13T02:51:34.068Z,96277.97
2022-11-13T02:54:01.793Z,96267.75
2022-11-13T02:56:29.391Z,96271.44
2022-11-13T02:58:58.401Z,96274.94
2022-11-13T03:01:26.020Z,96265.28
2022-11-13T03:03:58.120Z,96258.63
2022-11-13T03:06:26.094Z,96254.59
2022-11-13T03:08:53.720Z,96256.63
2022-11-13T03:11:21.448Z,96254.38
2022-11-13T03:13:49.061Z,96250.06
2022-11-13T03:16:18.575Z,96242.38
2022-11-13T03:18:46.176Z,96248.16
2022-11-13T03:21:16.374Z,96238.97
2022-11-13T03:23:45.515Z,96252.47
2022-11-13T03:26:15.404Z,96248.63
2022-11-13T03:28:43.044Z,96249.50
2022-11-13T03:31:10.611Z,96250.81
2022-11-13T03:33:40.065Z,96245.34
2022-11-13T03:36:08.431Z,96237.28
2022-11-13T03:38:36.531Z,96237.38
2022-11-13T03:41:04.320Z,96231.47
2022-11-13T03:43:32.084Z,96220.41
2022-11-13T03:45:59.710Z,96216.13
2022-11-13T03:48:27.764Z,96207.13
2022-11-13T03:50:57.183Z,96206.53
2022-11-13T03:53:24.793Z,96207.03
2022-11-13T03:55:52.569Z,96200.28
2022-11-13T03:58:20.670Z,96197.78
2022-11-13T04:00:49.067Z,96204.75
2022-11-13T04:03:17.016Z,96203.91
2022-11-13T04:05:44.698Z,96201.56
2022-11-13T04:08:13.622Z,96198.72
2022-11-13T04:10:41.245Z,96195.97
2022-11-13T04:13:09.456Z,96202.19
2022-11-13T04:15:37.113Z,96193.06
2022-11-13T04:18:05.170Z,96193.38
2022-11-13T04:20:32.853Z,96192.53
2022-11-13T04:23:00.433Z,96200.50
2022-11-13T04:25:29.320Z,96202.94
2022-11-13T04:27:56.967Z,96204.44
2022-11-13T04:30:24.522Z,96202.94
2022-11-13T04:32:52.086Z,96190.81
2022-11-13T04:35:19.922Z,96185.88
2022-11-13T04:37:47.587Z,96187.34
2022-11-13T04:40:15.279Z,96192.31
2022-11-13T04:42:49.322Z,96182.47
2022-11-13T04:45:18.081Z,96179.69
2022-11-13T04:47:46.503Z,96170.34
2022-11-13T04:50:15.480Z,96173.91
2022-11-13T04:52:43.592Z,96165.03
2022-11-13T04:55:12.313Z,96158.53
2022-11-13T04:57:40.212Z,96161.69
2022-11-13T05:00:10.798Z,96158.34
2022-11-13T05:02:39.034Z,96160.94
2022-11-13T05:05:07.004Z,96151.53
2022-11-13T05:07:34.620Z,96154.72
2022-11-13T05:10:02.183Z,96159.19
2022-11-13T05:12:29.854Z,96165.13
2022-11-13T05:14:57.479Z,96157.16
2022-11-13T05:17:26.514Z,96159.00
2022-11-13T05:19:54.125Z,96153.81
2022-11-13T05:22:21.726Z,96143.63
2022-11-13T05:24:49.327Z,96145.28
2022-11-13T05:27:17.740Z,96139.47
2022-11-13T05:29:45.709Z,96129.91
2022-11-13T05:32:13.326Z,96129.16
2022-11-13T05:34:42.298Z,96124.03
2022-11-13T05:37:09.982Z,96136.28
2022-11-13T05:39:37.631Z,96130.22
2022-11-13T05:42:05.654Z,96113.88
2022-11-13T05:44:33.232Z,96115.13
2022-11-13T05:47:00.891Z,96112.50
2022-11-13T05:49:28.520Z,96106.34
2022-11-13T05:51:57.477Z,96106.78
2022-11-13T05:54:25.111Z,96111.81
2022-11-13T05:56:52.703Z,96115.16
2022-11-13T05:59:20.398Z,96109.72
2022-11-13T06:01:48.168Z,96103.09
2022-11-13T06:04:15.794Z,96100.44
2022-11-13T06:06:43.477Z,96090.53
2022-11-13T06:09:16.282Z,96104.63
2022-11-13T06:11:44.248Z,96094.53
2022-11-13T06:14:12.008Z,96097.56
2022-11-13T06:16:40.327Z,96096.38
2022-11-13T06:19:13.180Z,96093.97
2022-11-13T06:21:41.695Z,96094.03
2022-11-13T06:24:11.733Z,96076.13
2022-11-13T06:26:40.923Z,96081.28
2022-11-13T06:29:11.900Z,96080.59
2022-11-13T06:31:39.527Z,96080.91
2022-11-13T06:34:07.662Z,96083.41
2022-11-13T06:36:36.998Z,96074.09
2022-11-13T06:39:07.261Z,96073.88
2022-11-13T06:41:35.144Z,96060.31
2022-11-13T06:44:07.242Z,96062.34
2022-11-13T06:46:34.809Z,96060.94
2022-11-13T06:49:03.028Z,96055.16
2022-11-13T06:51:32.343Z,96050.16
2022-11-13T06:53:59.945Z,96050.59
2022-11-13T06:56:27.876Z,96035.16
2022-11-13T06:58:56.737Z,96028.88
2022-11-13T07:01:27.040Z,96014.84
2022-11-13T07:03:55.193Z,96008.28
2022-11-13T07:06:24.778Z,96019.63
2022-11-13T07:08:53.060Z,96011.31
2022-11-13T07:11:22.712Z,96029.19
2022-11-13T07:13:51.045Z,96036.28
2022-11-13T07:16:19.137Z,96026.06
2022-11-13T07:18:52.172Z,96019.34
2022-11-13T07:21:20.763Z,96025.66
2022-11-13T07:23:49.582Z,96012.78
2022-11-13T07:26:17.411Z,96007.78
2022-11-13T07:28:45.415Z,95996.50
2022-11-13T07:31:14.797Z,96006.66
2022-11-13T07:33:44.419Z,96002.81
2022-11-13T07:36:13.469Z,96008.94
2022-11-13T07:38:41.105Z,96017.13
2022-11-13T07:41:08.880Z,96019.69
2022-11-13T07:43:36.749Z,96031.59
2022-11-13T07:46:04.603Z,96041.13
2022-11-13T07:48:32.546Z,96060.91
2022-11-13T07:51:01.804Z,96072.28
2022-11-13T07:53:31.053Z,96063.81
2022-11-13T07:56:01.930Z,96061.69
2022-11-13T07:58:35.561Z,96063.63
2022-11-13T08:01:05.218Z,96061.47
2022-11-13T08:03:33.785Z,96061.59
2022-11-13T08:06:03.435Z,96063.03
2022-11-13T08:08:32.558Z,96064.69
2022-11-13T08:11:00.319Z,96056.22
2022-11-13T08:13:27.918Z,96046.63
2022-11-13T08:15:55.589Z,96036.28
2022-11-13T08:18:23.186Z,96030.91
2022-11-13T08:20:50.771Z,96030.38
2022-11-13T08:23:18.346Z,96021.94
2022-11-13T08:25:49.497Z,96007.28
2022-11-13T08:28:21.473Z,96004.84
2022-11-13T08:30:49.193Z,96005.53
2022-11-13T08:33:16.837Z,96021.13
2022-11-13T08:35:58.845Z,96019.53
2022-11-13T08:38:28.259Z,96016.69
2022-11-13T08:41:32.593Z,96007.19
2022-11-13T08:44:10.853Z,96009.25
2022-11-13T08:46:38.606Z,96003.34
2022-11-13T08:49:06.303Z,96002.69
2022-11-13T08:51:33.997Z,96007.53
2022-11-13T08:54:04.418Z,96011.78
2022-11-13T08:56:33.379Z,95997.91
2022-11-13T08:59:00.995Z,95993.53
2022-11-13T09:01:28.663Z,95987.13
2022-11-13T09:03:59.154Z,95998.28
2022-11-13T09:06:26.904Z,95991.97
2022-11-13T09:08:54.931Z,96001.22
2022-11-13T09:11:22.712Z,95996.13
2022-11-13T09:13:55.120Z,95996.47
2022-11-13T09:16:22.890Z,96001.72
2022-11-13T09:18:50.858Z,96001.19
2022-11-13T09:21:18.739Z,95999.88
2022-11-13T09:23:46.679Z,96001.22
2022-11-13T09:26:16.943Z,95994.13
2022-11-13T09:28:44.892Z,95996.72
2022-11-13T09:31:13.920Z,96001.38
2022-11-13T09:33:41.662Z,95994.78
2022-11-13T09:36:12.253Z,95983.88
2022-11-13T09:38:40.062Z,95976.06
2022-11-13T09:41:11.377Z,95976.66
2022-11-13T09:43:43.902Z,95986.22
2022-11-13T09:46:18.603Z,95971.16
2022-11-13T09:48:51.950Z,95967.72
2022-11-13T09:51:23.189Z,95964.72
2022-11-13T09:53:51.134Z,95962.22
2022-11-13T09:56:29.810Z,95958.56
2022-11-13T09:59:07.157Z,95950.13
2022-11-13T10:01:48.515Z,95944.66
2022-11-13T10:04:23.149Z,95946.84
2022-11-13T10:07:01.559Z,95948.13
2022-11-13T10:09:51.472Z,95957.91
2022-11-13T10:12:22.879Z,95958.09
2022-11-13T10:14:55.712Z,95957.34
2022-11-13T10:17:29.855Z,95950.44
2022-11-13T10:20:00.237Z,95943.28
2022-11-13T10:22:34.603Z,95935.22
2022-11-13T10:25:12.689Z,95936.22
2022-11-13T10:27:40.515Z,95922.34
2022-11-13T10:30:15.175Z,95928.03
2022-11-13T10:32:45.330Z,95921.41
2022-11-13T10:35:29.251Z,95913.50
2022-11-13T10:38:08.134Z,95912.34
2022-11-13T10:40:39.361Z,95909.41
2022-11-13T10:43:14.238Z,95905.06
2022-11-13T10:45:42.002Z,95898.13
2022-11-13T10:48:22.117Z,95890.06
2022-11-13T10:50:58.478Z,95886.94
2022-11-13T10:53:28.375Z,95877.53
2022-11-13T10:55:58.853Z,95871.44
2022-11-13T10:58:27.119Z,95872.19
2022-11-13T11:00:55.054Z,95866.91
2022-11-13T11:03:43.578Z,95860.75
2022-11-13T11:06:11.310Z,95849.41
2022-11-13T11:08:38.946Z,95851.91
2022-11-13T11:11:31.625Z,95844.88
2022-11-13T11:14:06.480Z,95846.00
2022-11-13T11:16:34.260Z,95838.06
2022-11-13T11:19:05.981Z,95844.03
2022-11-13T11:21:36.377Z,95839.44
2022-11-13T11:24:11.585Z,95843.50
2022-11-13T11:26:44.248Z,95835.41
2022-11-13T11:29:19.314Z,95831.97
2022-11-13T11:31:53.869Z,95825.06
2022-11-13T11:34:28.218Z,95827.44
2022-11-13T11:37:02.113Z,95822.72
2022-11-13T11:39:45.356Z,95810.03
2022-11-13T11:42:23.648Z,95810.66
2022-11-13T11:45:01.187Z,95806.41
2022-11-13T11:47:29.225Z,95793.50
2022-11-13T11:49:58.182Z,95784.38
2022-11-13T11:52:38.800Z,95790.63
2022-11-13T11:55:20.894Z,95786.63
2022-11-13T11:57:56.481Z,95780.13
2022-11-13T12:00:24.227Z,95779.16
2022-11-13T12:03:19.515Z,95771.31
2022-11-13T12:06:03.398Z,95767.88
2022-11-13T12:08:40.694Z,95775.63
2022-11-13T12:11:17.772Z,95775.63
2022-11-13T12:13:54.539Z,95783.31
2022-11-13T12:16:27.436Z,95772.84
2022-11-13T12:19:03.926Z,95768.41
2022-11-13T12:21:45.173Z,95763.06
2022-11-13T12:24:32.693Z,95758.41
2022-11-13T12:27:16.631Z,95759.13
2022-11-13T12:30:00.549Z,95748.13
2022-11-13T12:32:44.062Z,95741.16
2022-11-13T12:35:17.620Z,95728.50
2022-11-13T12:37:51.005Z,95721.44
2022-11-13T12:40:28.418Z,95711.09
2022-11-13T12:43:04.204Z,95724.38
2022-11-13T12:45:51.709Z,95718.56
2022-11-13T12:48:28.899Z,95710.50
2022-11-13T12:54:31.738Z,95718.88
2022-11-13T12:57:36.615Z,95722.22
2022-11-13T13:00:31.254Z,95719.00
2022-11-13T13:03:16.569Z,95711.34
2022-11-13T13:06:00.707Z,95706.06
2022-11-13T13:08:47.662Z,95701.81
2022-11-13T13:11:20.839Z,95690.31
2022-11-13T13:13:59.309Z,95687.13
2022-11-13T13:16:29.294Z,95676.03
2022-11-13T13:19:07.879Z,95664.94
2022-11-13T13:21:42.437Z,95666.16
2022-11-13T13:24:26.619Z,95662.28
2022-11-13T13:26:55.850Z,95667.59
2022-11-13T13:29:26.125Z,95677.50
2022-11-13T13:31:58.469Z,95673.63
2022-11-13T13:34:36.979Z,95670.19
2022-11-13T13:37:11.986Z,95656.19
2022-11-13T13:40:01.472Z,95653.06
2022-11-13T13:42:51.030Z,95646.22
2022-11-13T13:45:32.480Z,95642.50
2022-11-13T13:48:01.483Z,95635.31
2022-11-13T13:50:32.060Z,95632.63
2022-11-13T13:53:01.034Z,95629.88
2022-11-13T13:55:33.662Z,95626.16
2022-11-13T13:58:05.813Z,95612.22
2022-11-13T14:00:34.322Z,95601.31
2022-11-13T14:03:03.351Z,95610.94
2022-11-13T14:05:34.249Z,95598.63
2022-11-13T14:08:07.302Z,95610.25
2022-11-13T14:10:37.422Z,95614.34
2022-11-13T14:13:06.359Z,95609.78
2022-11-13T14:15:35.765Z,95614.75
2022-11-13T14:18:08.632Z,95621.34
2022-11-13T14:20:44.983Z,95614.78
2022-11-13T14:23:16.217Z,95612.50
2022-11-13T14:25:45.391Z,95598.84
2022-11-13T14:28:17.056Z,95605.84
2022-11-13T14:30:45.131Z,95601.38
2022-11-13T14:33:17.361Z,95601.28
2022-11-13T14:35:52.927Z,95593.41
2022-11-13T14:38:23.804Z,95594.53
2022-11-13T14:40:51.757Z,95587.56
2022-11-13T14:43:24.842Z,95582.25
2022-11-13T14:45:58.404Z,95590.19
2022-11-13T14:48:28.130Z,95591.81
2022-11-13T14:50:58.220Z,95588.78
2022-11-13T14:53:32.240Z,95592.09
2022-11-13T14:56:02.407Z,95600.31
2022-11-13T14:58:34.526Z,95590.53
2022-11-13T15:01:15.220Z,95585.69
2022-11-13T15:03:43.691Z,95583.47
2022-11-13T15:06:15.536Z,95577.56
2022-11-13T15:08:44.126Z,95583.09
2022-11-13T15:11:15.025Z,95575.44
2022-11-13T15:13:44.713Z,95569.41
2022-11-13T15:16:16.468Z,95575.44
2022-11-13T15:18:48.271Z,95580.03
2022-11-13T15:21:16.033Z,95578.59
2022-11-13T15:23:43.646Z,95574.47
2022-11-13T15:26:12.022Z,95573.06
2022-11-13T15:28:39.892Z,95569.41
2022-11-13T15:31:19.805Z,95571.41
2022-11-13T15:33:48.173Z,95569.88
2022-11-13T15:36:16.389Z,95584.84
2022-11-13T15:38:43.968Z,95581.78
2022-11-13T15:41:16.510Z,95574.09
2022-11-13T15:43:46.534Z,95576.69
2022-11-13T15:46:17.869Z,95572.53
2022-11-13T15:48:45.655Z,95576.94
2022-11-13T15:51:18.194Z,95566.78
2022-11-13T15:53:46.355Z,95564.31
2022-11-13T15:56:14.006Z,95566.06
2022-11-13T15:58:41.737Z,95566.91
2022-11-13T16:01:10.600Z,95567.81
2022-11-13T16:03:40.504Z,95565.34
2022-11-13T16:06:12.319Z,95562.06
2022-11-13T16:08:39.933Z,95567.94
2022-11-13T16:11:07.719Z,95578.53
2022-11-13T16:13:35.342Z,95564.88
2022-11-13T16:16:03.106Z,95561.56
2022-11-13T16:18:32.107Z,95564.88
2022-11-13T16:21:01.044Z,95558.84
2022-11-13T16:23:28.800Z,95562.06
2022-11-13T16:25:56.591Z,95557.56
2022-11-13T16:28:24.151Z,95548.41
2022-11-13T16:30:51.933Z,95560.03
2022-11-13T16:33:19.523Z,95563.81
2022-11-13T16:35:47.180Z,95562.50
2022-11-13T16:38:16.143Z,95557.31
2022-11-13T16:40:45.506Z,95557.22
2022-11-13T16:43:13.286Z,95554.13
2022-11-13T16:45:40.982Z,95555.44
2022-11-13T16:48:13.883Z,95547.31
2022-11-13T16:50:42.269Z,95542.41
2022-11-13T16:53:10.655Z,95550.03
2022-11-13T16:55:39.647Z,95547.78
2022-11-13T16:58:07.269Z,95549.69
2022-11-13T17:00:36.147Z,95542.03
2022-11-13T17:03:03.743Z,95538.38
2022-11-13T17:05:31.344Z,95530.53
2022-11-13T17:08:00.177Z,95537.19
2022-11-13T17:10:32.648Z,95542.13
2022-11-13T17:13:02.182Z,95529.53
2022-11-13T17:15:29.802Z,95530.69
2022-11-13T17:17:58.077Z,95524.66
2022-11-13T17:20:25.814Z,95529.28
2022-11-13T17:22:53.358Z,95528.94
2022-11-13T17:25:23.296Z,95527.50
2022-11-13T17:27:50.917Z,95533.97
2022-11-13T17:30:20.309Z,95530.66
2022-11-13T17:32:47.893Z,95533.97
2022-11-13T17:35:15.522Z,95531.47
2022-11-13T17:37:43.149Z,95523.66
2022-11-13T17:40:12.685Z,95528.13
2022-11-13T17:42:41.801Z,95531.78
2022-11-13T17:45:10.308Z,95533.97
2022-11-13T17:47:39.219Z,95542.97
2022-11-13T17:50:08.040Z,95533.88
2022-11-13T17:52:35.721Z,95542.19
2022-11-13T17:55:05.950Z,95537.44
2022-11-13T17:57:34.239Z,95543.13
2022-11-13T18:00:01.883Z,95541.69
2022-11-13T18:02:29.603Z,95541.91
2022-11-13T18:05:01.129Z,95541.66
2022-11-13T18:07:29.003Z,95544.91
2022-11-13T18:09:56.859Z,95545.44
2022-11-13T18:12:24.502Z,95548.97
2022-11-13T18:14:53.194Z,95542.00
2022-11-13T18:17:22.060Z,95538.09
2022-11-13T18:19:50.462Z,95546.94
2022-11-13T18:22:19.567Z,95540.09
2022-11-13T18:24:47.179Z,95545.03
2022-11-13T18:27:15.122Z,95545.94
2022-11-13T18:29:42.686Z,95557.13
2022-11-13T18:32:10.300Z,95552.25
2022-11-13T18:34:37.886Z,95551.88
2022-11-13T18:37:05.517Z,95543.81
2022-11-13T18:39:34.498Z,95538.72
2022-11-13T18:42:02.041Z,95527.59
2022-11-13T18:44:29.823Z,95527.78
2022-11-13T18:46:57.473Z,95534.41
2022-11-13T18:49:25.094Z,95524.47
2022-11-13T18:51:52.667Z,95532.16
2022-11-13T18:54:20.525Z,95535.25
2022-11-13T18:56:49.869Z,95539.06
2022-11-13T18:59:17.640Z,95548.25
2022-11-13T19:01:45.444Z,95549.13
2022-11-13T19:04:23.623Z,95558.50
2022-11-13T19:06:52.038Z,95561.69
2022-11-13T19:09:20.051Z,95553.84
2022-11-13T19:11:50.203Z,95557.50
2022-11-13T19:14:19.112Z,95561.00
2022-11-13T19:16:46.805Z,95568.88
2022-11-13T19:19:19.220Z,95572.13
2022-11-13T19:21:47.561Z,95566.22
2022-11-13T19:24:15.520Z,95568.88
2022-11-13T19:26:44.136Z,95558.16
2022-11-13T19:29:13.763Z,95552.59
2022-11-13T19:31:41.668Z,95560.13
2022-11-13T19:34:09.767Z,95554.84
2022-11-13T19:36:37.979Z,95554.44
2022-11-13T19:39:06.094Z,95564.16
2022-11-13T19:41:33.969Z,95560.34
2022-11-13T19:44:01.600Z,95544.72
2022-11-13T19:46:31.942Z,95562.09
2022-11-13T19:48:59.639Z,95554.75
2022-11-13T19:51:27.662Z,95556.19
2022-11-13T19:53:56.581Z,95555.56
2022-11-13T19:56:25.525Z,95557.13
2022-11-13T19:58:53.774Z,95549.66
2022-11-13T20:01:23.029Z,95565.06
2022-11-13T20:03:56.056Z,95560.81
2022-11-13T20:06:24.075Z,95565.66
2022-11-13T20:08:51.815Z,95556.59
2022-11-13T20:11:19.419Z,95556.19
2022-11-13T20:13:47.235Z,95561.44
2022-11-13T20:16:16.921Z,95550.56
2022-11-13T20:18:45.455Z,95546.25
2022-11-13T20:21:14.601Z,95540.91
2022-11-13T20:23:42.269Z,95536.88
2022-11-13T20:26:13.553Z,95541.31
2022-11-13T20:28:41.233Z,95544.22
2022-11-13T20:31:14.209Z,95537.91
2022-11-13T20:33:41.806Z,95541.75
2022-11-13T20:36:09.722Z,95547.34
2022-11-13T20:38:39.726Z,95551.03
2022-11-13T20:41:10.482Z,95544.13
2022-11-13T20:43:38.266Z,95544.34
2022-11-13T20:46:08.436Z,95547.16
2022-11-13T20:48:36.103Z,95553.28
2022-11-13T20:51:08.716Z,95548.53
2022-11-13T20:53:37.740Z,95545.22
2022-11-13T20:56:07.444Z,95534.81
2022-11-13T20:58:35.874Z,95537.78
2022-11-13T21:01:04.784Z,95536.56
2022-11-13T21:03:34.935Z,95539.03
2022-11-13T21:06:07.006Z,95547.63
2022-11-13T21:08:34.925Z,95549.13
2022-11-13T21:11:05.902Z,95545.16
2022-11-13T21:13:34.033Z,95547.88
2022-11-13T21:16:05.920Z,95542.81
2022-11-13T21:18:33.556Z,95536.34
2022-11-13T21:21:05.496Z,95538.59
2022-11-13T21:23:33.158Z,95539.31
2022-11-13T21:26:01.365Z,95546.34
2022-11-13T21:28:33.702Z,95538.22
2022-11-13T21:31:03.735Z,95538.44
2022-11-13T21:33:36.177Z,95532.03
2022-11-13T21:36:08.084Z,95526.63
2022-11-13T21:38:35.830Z,95522.19
2022-11-13T21:41:24.845Z,95526.81
2022-11-13T21:43:57.953Z,95519.00
2022-11-13T21:46:27.285Z,95521.50
2022-11-13T21:48:59.666Z,95506.50
2022-11-13T21:51:27.628Z,95517.94
2022-11-13T21:53:55.392Z,95516.22
2022-11-13T21:56:23.443Z,95515.09
2022-11-13T21:58:51.207Z,95513.72
2022-11-13T22:01:20.957Z,95515.81
2022-11-13T22:03:49.705Z,95523.44
2022-11-13T22:06:20.345Z,95512.56
2022-11-13T22:08:54.624Z,95514.41
2022-11-13T22:11:22.511Z,95511.72
2022-11-13T22:13:50.115Z,95509.66
2022-11-13T22:16:18.039Z,95511.84
2022-11-13T22:18:47.007Z,95520.94
2022-11-13T22:21:16.419Z,95527.75
2022-11-13T22:23:44.008Z,95531.78
2022-11-13T22:26:13.947Z,95534.56
2022-11-13T22:28:43.282Z,95532.50
2022-11-13T22:31:15.118Z,95523.94
2022-11-13T22:33:48.171Z,95526.91
2022-11-13T22:36:20.540Z,95522.91
2022-11-13T22:38:48.684Z,95530.97
2022-11-13T22:41:22.936Z,95530.53
2022-11-13T22:43:52.799Z,95530.16
2022-11-13T22:46:22.407Z,95530.84
2022-11-13T22:48:51.510Z,95527.47
2022-11-13T22:51:22.390Z,95527.31
2022-11-13T22:53:51.954Z,95521.41
2022-11-13T22:56:20.844Z,95519.31
2022-11-13T22:58:48.582Z,95516.91
2022-11-13T23:01:18.123Z,95515.53
2022-11-13T23:03:47.433Z,95510.59
2022-11-13T23:06:17.514Z,95514.94
2022-11-13T23:08:46.711Z,95519.03
2022-11-13T23:11:16.204Z,95516.56
2022-11-13T23:13:45.629Z,95522.38
2022-11-13T23:16:13.970Z,95507.19
2022-11-13T23:18:41.906Z,95499.81
2022-11-13T23:21:10.705Z,95485.44
2022-11-13T23:23:38.524Z,95469.13
2022-11-13T23:26:08.881Z,95477.28
2022-11-13T23:28:37.377Z,95466.53
2022-11-13T23:31:06.018Z,95471.91
2022-11-13T23:33:33.856Z,95475.66
2022-11-13T23:36:01.823Z,95468.59
2022-11-13T23:38:29.839Z,95473.66
2022-11-13T23:41:01.701Z,95475.72
2022-11-13T23:43:54.311Z,95469.03
2022-11-13T23:46:19.151Z,95471.78
2022-11-13T23:48:46.728Z,95475.53
2022-11-13T23:51:14.331Z,95486.19
2022-11-13T23:53:42.003Z,95481.28
2022-11-13T23:56:09.972Z,95488.50
2022-11-13T23:58:38.880Z,95497.00
